sensor_id;sensor_type;location;lat;lon;timestamp;P1;durP1;ratioP1;P2;durP2;ratioP2
47804;SDS011;33568;45.286;9.900;2023-02-28T00:00:34;11.80;;;7.22;;
47804;SDS011;33568;45.286;9.900;2023-02-28T00:03:01;15.93;;;7.75;;
47804;SDS011;33568;45.286;9.900;2023-02-28T00:05:29;13.45;;;7.55;;
47804;SDS011;33568;45.286;9.900;2023-02-28T00:07:55;12.77;;;7.40;;
47804;SDS011;33568;45.286;9.900;2023-02-28T00:10:22;16.10;;;6.68;;
47804;SDS011;33568;45.286;9.900;2023-02-28T00:12:52;17.35;;;8.60;;
47804;SDS011;33568;45.286;9.900;2023-02-28T00:15:23;15.93;;;7.50;;
47804;SDS011;33568;45.286;9.900;2023-02-28T00:17:49;11.70;;;7.85;;
47804;SDS011;33568;45.286;9.900;2023-02-28T00:20:17;17.15;;;8.07;;
47804;SDS011;33568;45.286;9.900;2023-02-28T00:22:46;11.98;;;7.95;;
47804;SDS011;33568;45.286;9.900;2023-02-28T00:25:16;11.77;;;7.40;;
47804;SDS011;33568;45.286;9.900;2023-02-28T00:27:44;14.60;;;7.70;;
47804;SDS011;33568;45.286;9.900;2023-02-28T00:30:12;15.65;;;7.45;;
47804;SDS011;33568;45.286;9.900;2023-02-28T00:32:42;21.55;;;8.27;;
47804;SDS011;33568;45.286;9.900;2023-02-28T00:37:35;11.05;;;7.20;;
47804;SDS011;33568;45.286;9.900;2023-02-28T00:42:30;17.50;;;7.72;;
47804;SDS011;33568;45.286;9.900;2023-02-28T00:44:56;12.90;;;7.57;;
47804;SDS011;33568;45.286;9.900;2023-02-28T00:47:23;18.70;;;8.65;;
47804;SDS011;33568;45.286;9.900;2023-02-28T00:49:49;17.20;;;7.55;;
47804;SDS011;33568;45.286;9.900;2023-02-28T00:52:16;16.13;;;7.28;;
47804;SDS011;33568;45.286;9.900;2023-02-28T00:54:42;16.85;;;7.95;;
47804;SDS011;33568;45.286;9.900;2023-02-28T00:57:08;14.85;;;7.78;;
47804;SDS011;33568;45.286;9.900;2023-02-28T00:59:35;14.32;;;7.40;;
47804;SDS011;33568;45.286;9.900;2023-02-28T01:02:01;12.65;;;7.93;;
47804;SDS011;33568;45.286;9.900;2023-02-28T01:04:28;17.55;;;8.15;;
47804;SDS011;33568;45.286;9.900;2023-02-28T01:06:54;16.05;;;7.28;;
47804;SDS011;33568;45.286;9.900;2023-02-28T01:09:20;12.93;;;7.75;;
47804;SDS011;33568;45.286;9.900;2023-02-28T01:11:47;15.30;;;7.88;;
47804;SDS011;33568;45.286;9.900;2023-02-28T01:14:14;15.25;;;7.85;;
47804;SDS011;33568;45.286;9.900;2023-02-28T01:16:41;10.05;;;6.85;;
47804;SDS011;33568;45.286;9.900;2023-02-28T01:21:34;12.68;;;7.40;;
47804;SDS011;33568;45.286;9.900;2023-02-28T01:24:01;14.20;;;7.97;;
47804;SDS011;33568;45.286;9.900;2023-02-28T01:26:29;15.15;;;8.23;;
47804;SDS011;33568;45.286;9.900;2023-02-28T01:31:21;14.35;;;7.78;;
47804;SDS011;33568;45.286;9.900;2023-02-28T01:33:49;9.10;;;7.28;;
47804;SDS011;33568;45.286;9.900;2023-02-28T01:41:14;14.73;;;7.30;;
47804;SDS011;33568;45.286;9.900;2023-02-28T01:46:11;14.40;;;7.80;;
47804;SDS011;33568;45.286;9.900;2023-02-28T01:48:46;13.55;;;7.40;;
47804;SDS011;33568;45.286;9.900;2023-02-28T01:51:18;16.08;;;8.50;;
47804;SDS011;33568;45.286;9.900;2023-02-28T01:53:56;13.07;;;7.75;;
47804;SDS011;33568;45.286;9.900;2023-02-28T01:56:28;13.27;;;8.57;;
47804;SDS011;33568;45.286;9.900;2023-02-28T01:58:58;13.30;;;7.80;;
47804;SDS011;33568;45.286;9.900;2023-02-28T02:01:25;10.85;;;7.60;;
47804;SDS011;33568;45.286;9.900;2023-02-28T02:03:54;10.82;;;8.05;;
47804;SDS011;33568;45.286;9.900;2023-02-28T02:06:34;11.32;;;8.27;;
47804;SDS011;33568;45.286;9.900;2023-02-28T02:09:12;16.52;;;8.32;;
47804;SDS011;33568;45.286;9.900;2023-02-28T02:11:39;12.63;;;8.20;;
47804;SDS011;33568;45.286;9.900;2023-02-28T02:14:23;16.15;;;8.20;;
47804;SDS011;33568;45.286;9.900;2023-02-28T02:17:04;14.82;;;8.48;;
47804;SDS011;33568;45.286;9.900;2023-02-28T02:25:30;11.55;;;8.25;;
47804;SDS011;33568;45.286;9.900;2023-02-28T02:36:45;10.27;;;7.85;;
47804;SDS011;33568;45.286;9.900;2023-02-28T02:39:40;13.70;;;8.82;;
47804;SDS011;33568;45.286;9.900;2023-02-28T02:42:30;14.13;;;8.20;;
47804;SDS011;33568;45.286;9.900;2023-02-28T02:45:00;11.07;;;7.70;;
47804;SDS011;33568;45.286;9.900;2023-02-28T02:47:32;12.27;;;7.78;;
47804;SDS011;33568;45.286;9.900;2023-02-28T02:50:04;17.70;;;7.63;;
47804;SDS011;33568;45.286;9.900;2023-02-28T02:52:36;12.30;;;8.15;;
47804;SDS011;33568;45.286;9.900;2023-02-28T02:55:07;10.45;;;8.27;;
47804;SDS011;33568;45.286;9.900;2023-02-28T03:00:14;11.23;;;8.13;;
47804;SDS011;33568;45.286;9.900;2023-02-28T03:02:45;10.75;;;7.65;;
47804;SDS011;33568;45.286;9.900;2023-02-28T03:05:53;11.75;;;8.07;;
47804;SDS011;33568;45.286;9.900;2023-02-28T03:08:21;13.95;;;7.95;;
47804;SDS011;33568;45.286;9.900;2023-02-28T03:10:49;9.68;;;8.00;;
47804;SDS011;33568;45.286;9.900;2023-02-28T03:25:06;10.27;;;7.47;;
47804;SDS011;33568;45.286;9.900;2023-02-28T03:28:20;12.18;;;8.30;;
47804;SDS011;33568;45.286;9.900;2023-02-28T03:31:19;10.45;;;7.78;;
47804;SDS011;33568;45.286;9.900;2023-02-28T03:34:13;12.13;;;7.60;;
47804;SDS011;33568;45.286;9.900;2023-02-28T03:36:49;11.48;;;8.30;;
47804;SDS011;33568;45.286;9.900;2023-02-28T03:39:30;10.50;;;7.53;;
47804;SDS011;33568;45.286;9.900;2023-02-28T03:42:05;13.15;;;8.25;;
47804;SDS011;33568;45.286;9.900;2023-02-28T03:44:37;13.00;;;8.05;;
47804;SDS011;33568;45.286;9.900;2023-02-28T03:52:36;9.50;;;7.60;;
47804;SDS011;33568;45.286;9.900;2023-02-28T03:55:12;12.45;;;8.10;;
47804;SDS011;33568;45.286;9.900;2023-02-28T03:58:01;11.73;;;7.80;;
47804;SDS011;33568;45.286;9.900;2023-02-28T04:00:35;11.10;;;8.00;;
47804;SDS011;33568;45.286;9.900;2023-02-28T04:03:06;10.27;;;7.25;;
47804;SDS011;33568;45.286;9.900;2023-02-28T04:05:32;9.43;;;7.43;;
47804;SDS011;33568;45.286;9.900;2023-02-28T04:08:10;10.48;;;7.63;;
47804;SDS011;33568;45.286;9.900;2023-02-28T04:10:36;11.70;;;7.10;;
47804;SDS011;33568;45.286;9.900;2023-02-28T04:13:03;10.35;;;6.97;;
47804;SDS011;33568;45.286;9.900;2023-02-28T04:15:29;9.02;;;7.03;;
47804;SDS011;33568;45.286;9.900;2023-02-28T04:20:41;13.02;;;7.25;;
47804;SDS011;33568;45.286;9.900;2023-02-28T04:23:26;9.00;;;7.22;;
47804;SDS011;33568;45.286;9.900;2023-02-28T04:25:54;10.18;;;7.00;;
47804;SDS011;33568;45.286;9.900;2023-02-28T04:28:39;10.35;;;6.80;;
47804;SDS011;33568;45.286;9.900;2023-02-28T04:31:06;11.13;;;7.40;;
47804;SDS011;33568;45.286;9.900;2023-02-28T04:33:32;8.95;;;7.13;;
47804;SDS011;33568;45.286;9.900;2023-02-28T04:36:00;12.70;;;7.68;;
47804;SDS011;33568;45.286;9.900;2023-02-28T04:41:13;9.73;;;7.45;;
47804;SDS011;33568;45.286;9.900;2023-02-28T04:43:40;10.30;;;7.43;;
47804;SDS011;33568;45.286;9.900;2023-02-28T04:46:25;12.82;;;7.75;;
47804;SDS011;33568;45.286;9.900;2023-02-28T04:48:51;13.10;;;8.10;;
47804;SDS011;33568;45.286;9.900;2023-02-28T04:51:18;9.63;;;7.75;;
47804;SDS011;33568;45.286;9.900;2023-02-28T04:53:45;10.23;;;7.93;;
47804;SDS011;33568;45.286;9.900;2023-02-28T04:56:12;10.85;;;7.97;;
47804;SDS011;33568;45.286;9.900;2023-02-28T04:58:41;10.65;;;7.95;;
47804;SDS011;33568;45.286;9.900;2023-02-28T05:01:15;10.75;;;7.80;;
47804;SDS011;33568;45.286;9.900;2023-02-28T05:03:54;11.13;;;8.50;;
47804;SDS011;33568;45.286;9.900;2023-02-28T05:06:22;10.35;;;8.70;;
47804;SDS011;33568;45.286;9.900;2023-02-28T05:08:51;12.68;;;8.60;;
47804;SDS011;33568;45.286;9.900;2023-02-28T05:11:20;9.77;;;7.57;;
47804;SDS011;33568;45.286;9.900;2023-02-28T05:13:51;11.63;;;8.20;;
47804;SDS011;33568;45.286;9.900;2023-02-28T05:16:18;13.27;;;8.93;;
47804;SDS011;33568;45.286;9.900;2023-02-28T05:18:45;14.07;;;8.63;;
47804;SDS011;33568;45.286;9.900;2023-02-28T05:21:23;9.68;;;8.15;;
47804;SDS011;33568;45.286;9.900;2023-02-28T05:24:00;9.98;;;8.48;;
47804;SDS011;33568;45.286;9.900;2023-02-28T05:26:28;16.70;;;8.70;;
47804;SDS011;33568;45.286;9.900;2023-02-28T05:28:55;13.73;;;9.15;;
47804;SDS011;33568;45.286;9.900;2023-02-28T05:31:59;15.10;;;9.15;;
47804;SDS011;33568;45.286;9.900;2023-02-28T05:34:25;16.55;;;9.77;;
47804;SDS011;33568;45.286;9.900;2023-02-28T05:36:51;12.38;;;10.32;;
47804;SDS011;33568;45.286;9.900;2023-02-28T05:39:18;18.42;;;10.88;;
47804;SDS011;33568;45.286;9.900;2023-02-28T05:42:03;17.38;;;11.82;;
47804;SDS011;33568;45.286;9.900;2023-02-28T05:46:55;16.10;;;10.85;;
47804;SDS011;33568;45.286;9.900;2023-02-28T05:49:40;17.27;;;12.10;;
47804;SDS011;33568;45.286;9.900;2023-02-28T05:52:26;15.55;;;12.23;;
47804;SDS011;33568;45.286;9.900;2023-02-28T05:54:53;16.25;;;12.68;;
47804;SDS011;33568;45.286;9.900;2023-02-28T05:57:19;18.40;;;13.00;;
47804;SDS011;33568;45.286;9.900;2023-02-28T05:59:45;14.25;;;11.80;;
47804;SDS011;33568;45.286;9.900;2023-02-28T06:02:13;18.35;;;12.63;;
47804;SDS011;33568;45.286;9.900;2023-02-28T06:04:41;18.33;;;11.68;;
47804;SDS011;33568;45.286;9.900;2023-02-28T06:07:27;18.60;;;12.35;;
47804;SDS011;33568;45.286;9.900;2023-02-28T06:09:53;20.55;;;13.40;;
47804;SDS011;33568;45.286;9.900;2023-02-28T06:12:19;20.40;;;12.65;;
47804;SDS011;33568;45.286;9.900;2023-02-28T06:14:46;17.08;;;12.73;;
47804;SDS011;33568;45.286;9.900;2023-02-28T06:17:12;19.48;;;13.98;;
47804;SDS011;33568;45.286;9.900;2023-02-28T06:19:38;20.13;;;12.90;;
47804;SDS011;33568;45.286;9.900;2023-02-28T06:22:23;18.30;;;11.52;;
47804;SDS011;33568;45.286;9.900;2023-02-28T06:24:50;15.90;;;12.40;;
47804;SDS011;33568;45.286;9.900;2023-02-28T06:27:16;18.08;;;12.45;;
47804;SDS011;33568;45.286;9.900;2023-02-28T06:29:42;20.60;;;11.60;;
47804;SDS011;33568;45.286;9.900;2023-02-28T06:32:09;16.00;;;11.50;;
47804;SDS011;33568;45.286;9.900;2023-02-28T06:34:35;17.35;;;13.10;;
47804;SDS011;33568;45.286;9.900;2023-02-28T06:37:02;16.95;;;12.52;;
47804;SDS011;33568;45.286;9.900;2023-02-28T06:39:29;18.23;;;13.07;;
47804;SDS011;33568;45.286;9.900;2023-02-28T06:41:56;17.38;;;11.98;;
47804;SDS011;33568;45.286;9.900;2023-02-28T06:44:23;17.67;;;12.48;;
47804;SDS011;33568;45.286;9.900;2023-02-28T06:46:50;18.17;;;12.45;;
47804;SDS011;33568;45.286;9.900;2023-02-28T06:52:02;17.52;;;12.52;;
47804;SDS011;33568;45.286;9.900;2023-02-28T06:57:28;19.85;;;11.77;;
47804;SDS011;33568;45.286;9.900;2023-02-28T06:59:59;15.98;;;11.98;;
47804;SDS011;33568;45.286;9.900;2023-02-28T07:02:44;19.20;;;12.02;;
47804;SDS011;33568;45.286;9.900;2023-02-28T07:05:10;16.02;;;12.30;;
47804;SDS011;33568;45.286;9.900;2023-02-28T07:07:37;16.83;;;12.32;;
47804;SDS011;33568;45.286;9.900;2023-02-28T07:10:24;20.88;;;11.65;;
47804;SDS011;33568;45.286;9.900;2023-02-28T07:12:51;16.35;;;11.82;;
47804;SDS011;33568;45.286;9.900;2023-02-28T07:15:17;19.10;;;12.25;;
47804;SDS011;33568;45.286;9.900;2023-02-28T07:18:02;16.95;;;12.10;;
47804;SDS011;33568;45.286;9.900;2023-02-28T07:20:29;17.45;;;12.80;;
47804;SDS011;33568;45.286;9.900;2023-02-28T07:22:57;17.63;;;12.00;;
47804;SDS011;33568;45.286;9.900;2023-02-28T07:25:23;17.65;;;12.15;;
47804;SDS011;33568;45.286;9.900;2023-02-28T07:30:55;18.75;;;12.13;;
47804;SDS011;33568;45.286;9.900;2023-02-28T07:35:49;15.70;;;10.85;;
47804;SDS011;33568;45.286;9.900;2023-02-28T07:40:42;19.40;;;11.75;;
47804;SDS011;33568;45.286;9.900;2023-02-28T07:43:08;15.27;;;11.65;;
47804;SDS011;33568;45.286;9.900;2023-02-28T07:45:35;21.38;;;12.13;;
47804;SDS011;33568;45.286;9.900;2023-02-28T07:48:01;34.65;;;13.43;;
47804;SDS011;33568;45.286;9.900;2023-02-28T07:50:53;18.80;;;11.68;;
47804;SDS011;33568;45.286;9.900;2023-02-28T07:55:50;16.83;;;12.32;;
47804;SDS011;33568;45.286;9.900;2023-02-28T08:00:43;17.90;;;12.20;;
47804;SDS011;33568;45.286;9.900;2023-02-28T08:03:11;18.65;;;12.98;;
47804;SDS011;33568;45.286;9.900;2023-02-28T08:05:41;18.90;;;12.05;;
47804;SDS011;33568;45.286;9.900;2023-02-28T08:08:08;23.23;;;13.13;;
47804;SDS011;33568;45.286;9.900;2023-02-28T08:10:34;23.63;;;13.40;;
47804;SDS011;33568;45.286;9.900;2023-02-28T08:13:01;20.63;;;12.43;;
47804;SDS011;33568;45.286;9.900;2023-02-28T08:15:28;17.90;;;12.43;;
47804;SDS011;33568;45.286;9.900;2023-02-28T08:17:54;17.83;;;13.00;;
47804;SDS011;33568;45.286;9.900;2023-02-28T08:20:24;15.30;;;11.88;;
47804;SDS011;33568;45.286;9.900;2023-02-28T08:22:51;16.90;;;13.05;;
47804;SDS011;33568;45.286;9.900;2023-02-28T08:25:17;17.25;;;12.13;;
47804;SDS011;33568;45.286;9.900;2023-02-28T08:27:45;21.15;;;12.07;;
47804;SDS011;33568;45.286;9.900;2023-02-28T08:30:12;16.20;;;11.18;;
47804;SDS011;33568;45.286;9.900;2023-02-28T08:32:40;16.65;;;11.40;;
47804;SDS011;33568;45.286;9.900;2023-02-28T08:35:07;16.00;;;10.82;;
47804;SDS011;33568;45.286;9.900;2023-02-28T08:40:20;17.02;;;12.57;;
47804;SDS011;33568;45.286;9.900;2023-02-28T08:42:46;12.52;;;9.48;;
47804;SDS011;33568;45.286;9.900;2023-02-28T08:45:14;17.60;;;11.40;;
47804;SDS011;33568;45.286;9.900;2023-02-28T08:47:40;12.98;;;11.00;;
47804;SDS011;33568;45.286;9.900;2023-02-28T08:52:33;19.33;;;11.85;;
47804;SDS011;33568;45.286;9.900;2023-02-28T08:55:00;17.27;;;11.32;;
47804;SDS011;33568;45.286;9.900;2023-02-28T08:57:26;13.77;;;11.55;;
47804;SDS011;33568;45.286;9.900;2023-02-28T08:59:53;18.52;;;11.98;;
47804;SDS011;33568;45.286;9.900;2023-02-28T09:04:45;16.88;;;11.30;;
47804;SDS011;33568;45.286;9.900;2023-02-28T09:07:12;21.98;;;11.23;;
47804;SDS011;33568;45.286;9.900;2023-02-28T09:09:57;13.13;;;10.30;;
47804;SDS011;33568;45.286;9.900;2023-02-28T09:18:14;13.90;;;10.75;;
47804;SDS011;33568;45.286;9.900;2023-02-28T09:20:59;11.77;;;10.57;;
47804;SDS011;33568;45.286;9.900;2023-02-28T09:23:32;10.75;;;8.75;;
47804;SDS011;33568;45.286;9.900;2023-02-28T09:31:31;12.55;;;7.45;;
47804;SDS011;33568;45.286;9.900;2023-02-28T09:33:58;7.63;;;6.82;;
47804;SDS011;33568;45.286;9.900;2023-02-28T09:36:25;13.93;;;7.78;;
47804;SDS011;33568;45.286;9.900;2023-02-28T09:38:53;8.45;;;6.97;;
47804;SDS011;33568;45.286;9.900;2023-02-28T09:41:43;9.23;;;7.32;;
47804;SDS011;33568;45.286;9.900;2023-02-28T09:47:08;10.82;;;7.53;;
47804;SDS011;33568;45.286;9.900;2023-02-28T09:50:21;9.95;;;6.97;;
47804;SDS011;33568;45.286;9.900;2023-02-28T09:56:04;12.73;;;6.65;;
47804;SDS011;33568;45.286;9.900;2023-02-28T10:07:17;16.92;;;10.27;;
47804;SDS011;33568;45.286;9.900;2023-02-28T10:10:05;15.38;;;7.20;;
47804;SDS011;33568;45.286;9.900;2023-02-28T10:12:44;11.27;;;7.55;;
47804;SDS011;33568;45.286;9.900;2023-02-28T10:15:15;11.43;;;7.50;;
47804;SDS011;33568;45.286;9.900;2023-02-28T10:17:43;18.15;;;7.22;;
47804;SDS011;33568;45.286;9.900;2023-02-28T10:20:33;8.70;;;7.28;;
47804;SDS011;33568;45.286;9.900;2023-02-28T10:23:23;8.68;;;6.75;;
47804;SDS011;33568;45.286;9.900;2023-02-28T10:25:55;14.88;;;7.88;;
47804;SDS011;33568;45.286;9.900;2023-02-28T10:28:25;9.18;;;7.22;;
47804;SDS011;33568;45.286;9.900;2023-02-28T10:31:17;12.00;;;7.78;;
47804;SDS011;33568;45.286;9.900;2023-02-28T10:33:44;9.18;;;6.68;;
47804;SDS011;33568;45.286;9.900;2023-02-28T10:36:13;8.23;;;7.05;;
47804;SDS011;33568;45.286;9.900;2023-02-28T10:38:46;8.18;;;6.63;;
47804;SDS011;33568;45.286;9.900;2023-02-28T10:41:14;12.25;;;7.30;;
47804;SDS011;33568;45.286;9.900;2023-02-28T10:43:42;10.55;;;7.68;;
47804;SDS011;33568;45.286;9.900;2023-02-28T10:48:59;14.10;;;7.53;;
47804;SDS011;33568;45.286;9.900;2023-02-28T10:51:35;9.63;;;7.15;;
47804;SDS011;33568;45.286;9.900;2023-02-28T10:54:03;9.63;;;7.38;;
47804;SDS011;33568;45.286;9.900;2023-02-28T10:56:30;11.73;;;7.78;;
47804;SDS011;33568;45.286;9.900;2023-02-28T10:59:02;12.25;;;7.82;;
47804;SDS011;33568;45.286;9.900;2023-02-28T11:01:47;10.10;;;7.25;;
47804;SDS011;33568;45.286;9.900;2023-02-28T11:06:56;9.20;;;8.23;;
47804;SDS011;33568;45.286;9.900;2023-02-28T11:09:33;11.23;;;7.75;;
47804;SDS011;33568;45.286;9.900;2023-02-28T11:12:05;11.48;;;7.68;;
47804;SDS011;33568;45.286;9.900;2023-02-28T11:14:36;10.48;;;7.20;;
47804;SDS011;33568;45.286;9.900;2023-02-28T11:17:14;11.15;;;7.45;;
47804;SDS011;33568;45.286;9.900;2023-02-28T11:19:46;8.80;;;7.90;;
47804;SDS011;33568;45.286;9.900;2023-02-28T11:22:20;9.18;;;7.82;;
47804;SDS011;33568;45.286;9.900;2023-02-28T11:27:49;15.73;;;8.13;;
47804;SDS011;33568;45.286;9.900;2023-02-28T11:33:00;16.40;;;8.05;;
47804;SDS011;33568;45.286;9.900;2023-02-28T11:35:44;9.48;;;7.80;;
47804;SDS011;33568;45.286;9.900;2023-02-28T11:46:52;10.65;;;8.02;;
47804;SDS011;33568;45.286;9.900;2023-02-28T11:52:43;10.65;;;8.15;;
47804;SDS011;33568;45.286;9.900;2023-02-28T11:55:19;8.95;;;7.47;;
47804;SDS011;33568;45.286;9.900;2023-02-28T12:08:54;15.27;;;9.10;;
47804;SDS011;33568;45.286;9.900;2023-02-28T12:19:41;10.32;;;8.55;;
47804;SDS011;33568;45.286;9.900;2023-02-28T12:30:42;10.90;;;9.70;;
47804;SDS011;33568;45.286;9.900;2023-02-28T12:33:21;9.85;;;8.85;;
47804;SDS011;33568;45.286;9.900;2023-02-28T12:35:51;10.23;;;8.52;;
47804;SDS011;33568;45.286;9.900;2023-02-28T12:38:27;10.02;;;8.98;;
47804;SDS011;33568;45.286;9.900;2023-02-28T12:41:00;12.75;;;9.05;;
47804;SDS011;33568;45.286;9.900;2023-02-28T12:43:33;12.18;;;9.80;;
47804;SDS011;33568;45.286;9.900;2023-02-28T12:46:11;15.85;;;13.00;;
47804;SDS011;33568;45.286;9.900;2023-02-28T12:48:52;14.50;;;11.25;;
47804;SDS011;33568;45.286;9.900;2023-02-28T12:51:22;14.02;;;9.35;;
47804;SDS011;33568;45.286;9.900;2023-02-28T12:57:14;12.20;;;8.85;;
47804;SDS011;33568;45.286;9.900;2023-02-28T12:59:55;10.88;;;9.27;;
47804;SDS011;33568;45.286;9.900;2023-02-28T13:11:42;12.15;;;9.80;;
47804;SDS011;33568;45.286;9.900;2023-02-28T13:14:24;12.80;;;9.15;;
47804;SDS011;33568;45.286;9.900;2023-02-28T13:17:10;15.77;;;10.38;;
47804;SDS011;33568;45.286;9.900;2023-02-28T13:19:45;20.75;;;10.52;;
47804;SDS011;33568;45.286;9.900;2023-02-28T13:31:19;12.25;;;9.85;;
47804;SDS011;33568;45.286;9.900;2023-02-28T13:34:23;10.43;;;8.85;;
47804;SDS011;33568;45.286;9.900;2023-02-28T13:42:22;14.20;;;10.45;;
47804;SDS011;33568;45.286;9.900;2023-02-28T13:48:19;14.93;;;11.45;;
47804;SDS011;33568;45.286;9.900;2023-02-28T13:50:52;13.88;;;11.18;;
47804;SDS011;33568;45.286;9.900;2023-02-28T14:04:46;16.45;;;11.18;;
47804;SDS011;33568;45.286;9.900;2023-02-28T14:07:49;13.13;;;11.20;;
47804;SDS011;33568;45.286;9.900;2023-02-28T14:11:03;17.67;;;11.40;;
47804;SDS011;33568;45.286;9.900;2023-02-28T14:13:37;13.30;;;11.13;;
47804;SDS011;33568;45.286;9.900;2023-02-28T14:16:26;15.65;;;11.38;;
47804;SDS011;33568;45.286;9.900;2023-02-28T14:19:21;19.13;;;11.68;;
47804;SDS011;33568;45.286;9.900;2023-02-28T14:24:50;18.73;;;11.93;;
47804;SDS011;33568;45.286;9.900;2023-02-28T14:33:40;13.80;;;11.67;;
47804;SDS011;33568;45.286;9.900;2023-02-28T14:39:25;16.73;;;12.77;;
47804;SDS011;33568;45.286;9.900;2023-02-28T14:41:53;16.80;;;12.50;;
47804;SDS011;33568;45.286;9.900;2023-02-28T14:44:24;16.92;;;13.32;;
47804;SDS011;33568;45.286;9.900;2023-02-28T14:46:53;19.48;;;11.95;;
47804;SDS011;33568;45.286;9.900;2023-02-28T14:49:26;17.85;;;12.00;;
47804;SDS011;33568;45.286;9.900;2023-02-28T14:54:46;22.70;;;16.40;;
47804;SDS011;33568;45.286;9.900;2023-02-28T14:57:31;26.33;;;20.90;;
47804;SDS011;33568;45.286;9.900;2023-02-28T15:00:21;24.48;;;18.88;;
47804;SDS011;33568;45.286;9.900;2023-02-28T15:02:50;24.48;;;19.90;;
47804;SDS011;33568;45.286;9.900;2023-02-28T15:05:35;24.48;;;15.95;;
47804;SDS011;33568;45.286;9.900;2023-02-28T15:10:31;18.38;;;13.77;;
47804;SDS011;33568;45.286;9.900;2023-02-28T15:13:18;18.50;;;12.02;;
47804;SDS011;33568;45.286;9.900;2023-02-28T15:16:04;13.57;;;11.13;;
47804;SDS011;33568;45.286;9.900;2023-02-28T15:21:24;17.80;;;13.88;;
47804;SDS011;33568;45.286;9.900;2023-02-28T15:24:12;24.30;;;16.50;;
47804;SDS011;33568;45.286;9.900;2023-02-28T15:26:53;17.85;;;13.60;;
47804;SDS011;33568;45.286;9.900;2023-02-28T15:29:23;16.48;;;12.68;;
47804;SDS011;33568;45.286;9.900;2023-02-28T15:31:56;18.60;;;15.07;;
47804;SDS011;33568;45.286;9.900;2023-02-28T15:34:39;21.38;;;12.80;;
47804;SDS011;33568;45.286;9.900;2023-02-28T15:45:39;15.82;;;12.75;;
47804;SDS011;33568;45.286;9.900;2023-02-28T15:48:29;18.75;;;12.27;;
47804;SDS011;33568;45.286;9.900;2023-02-28T15:51:12;15.07;;;11.88;;
47804;SDS011;33568;45.286;9.900;2023-02-28T15:54:32;15.32;;;12.35;;
47804;SDS011;33568;45.286;9.900;2023-02-28T15:57:56;15.65;;;12.80;;
47804;SDS011;33568;45.286;9.900;2023-02-28T16:00:27;13.52;;;12.00;;
47804;SDS011;33568;45.286;9.900;2023-02-28T16:02:55;20.25;;;13.23;;
47804;SDS011;33568;45.286;9.900;2023-02-28T16:05:28;17.08;;;13.45;;
47804;SDS011;33568;45.286;9.900;2023-02-28T16:07:58;15.52;;;13.85;;
47804;SDS011;33568;45.286;9.900;2023-02-28T16:10:39;20.50;;;14.27;;
47804;SDS011;33568;45.286;9.900;2023-02-28T16:13:06;16.02;;;14.32;;
47804;SDS011;33568;45.286;9.900;2023-02-28T16:15:56;16.00;;;13.85;;
47804;SDS011;33568;45.286;9.900;2023-02-28T16:18:41;18.05;;;13.52;;
47804;SDS011;33568;45.286;9.900;2023-02-28T16:24:11;21.00;;;14.65;;
47804;SDS011;33568;45.286;9.900;2023-02-28T16:29:41;15.48;;;13.48;;
47804;SDS011;33568;45.286;9.900;2023-02-28T16:34:37;19.92;;;15.82;;
47804;SDS011;33568;45.286;9.900;2023-02-28T16:37:05;26.30;;;13.85;;
47804;SDS011;33568;45.286;9.900;2023-02-28T16:39:40;20.27;;;15.30;;
47804;SDS011;33568;45.286;9.900;2023-02-28T16:42:09;22.70;;;14.60;;
47804;SDS011;33568;45.286;9.900;2023-02-28T16:44:41;19.50;;;14.10;;
47804;SDS011;33568;45.286;9.900;2023-02-28T16:47:08;24.45;;;16.05;;
47804;SDS011;33568;45.286;9.900;2023-02-28T16:49:35;17.02;;;14.07;;
47804;SDS011;33568;45.286;9.900;2023-02-28T16:52:02;19.85;;;14.65;;
47804;SDS011;33568;45.286;9.900;2023-02-28T16:54:47;17.33;;;14.60;;
47804;SDS011;33568;45.286;9.900;2023-02-28T16:57:17;24.75;;;15.45;;
47804;SDS011;33568;45.286;9.900;2023-02-28T16:59:47;26.10;;;14.88;;
47804;SDS011;33568;45.286;9.900;2023-02-28T17:02:17;21.40;;;15.38;;
47804;SDS011;33568;45.286;9.900;2023-02-28T17:04:45;16.30;;;14.32;;
47804;SDS011;33568;45.286;9.900;2023-02-28T17:07:12;25.70;;;16.30;;
47804;SDS011;33568;45.286;9.900;2023-02-28T17:09:42;16.38;;;14.60;;
47804;SDS011;33568;45.286;9.900;2023-02-28T17:12:28;24.23;;;14.90;;
47804;SDS011;33568;45.286;9.900;2023-02-28T17:14:54;23.33;;;15.45;;
47804;SDS011;33568;45.286;9.900;2023-02-28T17:17:21;19.67;;;15.50;;
47804;SDS011;33568;45.286;9.900;2023-02-28T17:19:48;18.23;;;16.30;;
47804;SDS011;33568;45.286;9.900;2023-02-28T17:22:52;27.42;;;16.80;;
47804;SDS011;33568;45.286;9.900;2023-02-28T17:25:37;25.52;;;19.90;;
47804;SDS011;33568;45.286;9.900;2023-02-28T17:28:04;24.63;;;20.75;;
47804;SDS011;33568;45.286;9.900;2023-02-28T17:30:49;27.05;;;22.95;;
47804;SDS011;33568;45.286;9.900;2023-02-28T17:33:15;42.53;;;24.55;;
47804;SDS011;33568;45.286;9.900;2023-02-28T17:35:42;37.33;;;26.35;;
47804;SDS011;33568;45.286;9.900;2023-02-28T17:38:13;44.92;;;23.45;;
47804;SDS011;33568;45.286;9.900;2023-02-28T17:40:44;33.27;;;23.37;;
47804;SDS011;33568;45.286;9.900;2023-02-28T17:43:11;29.80;;;22.45;;
47804;SDS011;33568;45.286;9.900;2023-02-28T17:45:37;33.60;;;21.05;;
47804;SDS011;33568;45.286;9.900;2023-02-28T17:50:30;24.50;;;17.73;;
47804;SDS011;33568;45.286;9.900;2023-02-28T17:52:57;31.77;;;21.92;;
47804;SDS011;33568;45.286;9.900;2023-02-28T17:57:50;59.25;;;27.48;;
47804;SDS011;33568;45.286;9.900;2023-02-28T18:00:35;25.02;;;17.15;;
47804;SDS011;33568;45.286;9.900;2023-02-28T18:03:01;38.78;;;23.77;;
47804;SDS011;33568;45.286;9.900;2023-02-28T18:05:27;47.70;;;30.75;;
47804;SDS011;33568;45.286;9.900;2023-02-28T18:07:54;40.45;;;26.40;;
47804;SDS011;33568;45.286;9.900;2023-02-28T18:10:20;47.28;;;23.73;;
47804;SDS011;33568;45.286;9.900;2023-02-28T18:12:47;41.17;;;24.05;;
47804;SDS011;33568;45.286;9.900;2023-02-28T18:15:16;38.47;;;24.05;;
47804;SDS011;33568;45.286;9.900;2023-02-28T18:17:46;37.38;;;23.85;;
47804;SDS011;33568;45.286;9.900;2023-02-28T18:20:31;34.70;;;23.38;;
47804;SDS011;33568;45.286;9.900;2023-02-28T18:22:58;30.92;;;22.50;;
47804;SDS011;33568;45.286;9.900;2023-02-28T18:25:24;31.98;;;19.48;;
47804;SDS011;33568;45.286;9.900;2023-02-28T18:27:51;29.20;;;19.80;;
47804;SDS011;33568;45.286;9.900;2023-02-28T18:30:30;42.95;;;26.63;;
47804;SDS011;33568;45.286;9.900;2023-02-28T18:32:58;51.60;;;32.70;;
47804;SDS011;33568;45.286;9.900;2023-02-28T18:35:26;65.85;;;38.53;;
47804;SDS011;33568;45.286;9.900;2023-02-28T18:38:18;71.80;;;42.35;;
47804;SDS011;33568;45.286;9.900;2023-02-28T18:40:58;50.55;;;32.28;;
47804;SDS011;33568;45.286;9.900;2023-02-28T18:43:28;36.90;;;24.05;;
47804;SDS011;33568;45.286;9.900;2023-02-28T18:45:55;37.88;;;23.48;;
47804;SDS011;33568;45.286;9.900;2023-02-28T18:50:49;37.63;;;22.63;;
47804;SDS011;33568;45.286;9.900;2023-02-28T18:53:15;35.13;;;22.27;;
47804;SDS011;33568;45.286;9.900;2023-02-28T18:55:43;31.92;;;22.52;;
47804;SDS011;33568;45.286;9.900;2023-02-28T18:58:10;36.50;;;20.42;;
47804;SDS011;33568;45.286;9.900;2023-02-28T19:03:03;41.17;;;26.10;;
47804;SDS011;33568;45.286;9.900;2023-02-28T19:07:59;33.58;;;19.33;;
47804;SDS011;33568;45.286;9.900;2023-02-28T19:10:26;24.10;;;19.35;;
47804;SDS011;33568;45.286;9.900;2023-02-28T19:15:20;45.35;;;26.83;;
47804;SDS011;33568;45.286;9.900;2023-02-28T19:20:12;31.75;;;23.77;;